Weather History for Pineville, WV

Change the Weather History Date:

Thursday, November 29, 2012

  Actual Average (KBKW) Record (KBKW)
Temperature  
Mean Temperature 38 °F 39 °F  
Max Temperature 54 °F 47 °F 69 °F (1991)
Min Temperature 22 °F 31 °F 4 °F (1930)
Degree Days  
Heating Degree Days 28 26  
Month to date heating degree days 607  
Since 1 July heating degree days 1113  
Cooling Degree Days 0 0  
Month to date cooling degree days 0  
Year to date cooling degree days 556  
Moisture  
Dew Point 27 °F    
Average Humidity 82    
Maximum Humidity 100    
Minimum Humidity 36    
Precipitation  
Precipitation 0.00 in 0.11 in 2.03 in (1963)
Month to date precipitation 2.85  
Year to date precipitation 38.09  
Snow  
Snow 0.00 in - - ()
Month to date snowfall  
Since 1 September snowfall  
Snow Depth -    
Sea Level Pressure  
Sea Level Pressure 30.40 in    
Wind  
Wind Speed - (North)    
Max Wind Speed -    
Max Gust Speed -    
Visibility 10 miles    
Events      
T = Trace of Precipitation, MM = Missing Value Source: NWS Daily Summary

Daily Weather History Graph

Daily Weather History Graph

Search for Another Location

Airport:

Trip Planner

Search our weather history database for the weather conditions in past years. The results will help you decide how hot, cold, wet, or windy it might be!

Date:

Astronomy

Nov. 29, 2012 Rise Set
Actual Time 7:20 AM EST 5:08 PM EST
Civil Twilight 6:52 AM EST 5:37 PM EST
Nautical Twilight 6:19 AM EST 6:09 PM EST
Astronomical Twilight 5:48 AM EST 6:40 PM EST
Moon 6:10 PM EST (11/29) 8:06 AM EST (11/29)
Length of Visible Light 10h 44m
Length of Day
9h 47m
Full, 99% of the Moon is Illuminated
Nov 29
Full
Dec 6
Last Quarter
Dec 13
New
Dec 20
First Quarter
Dec 28
Full

Hourly Weather History & Observations

Time (EST) Temp. Dew Point Humidity Pressure Visibility Wind Dir Wind Speed Gust Speed Precip Events Conditions
12:15 AM 25.7 °F 25.7 °F 100% 30.43 in 10.0 mi North - - N/A   Clear
12:35 AM 25.5 °F 25.5 °F 100% 30.43 in 10.0 mi North - - N/A   Clear
1:15 AM 25.5 °F 25.2 °F 99% 30.43 in 10.0 mi North - - N/A   Clear
1:35 AM 24.8 °F 24.6 °F 99% 30.42 in 10.0 mi North - - N/A   Clear
1:55 AM 24.6 °F 24.4 °F 99% 30.42 in 10.0 mi North - - N/A   Clear
2:15 AM 24.4 °F 24.1 °F 99% 30.43 in 10.0 mi North - - N/A   Clear
2:35 AM 24.4 °F 23.9 °F 98% 30.43 in 10.0 mi North - - N/A   Clear
2:55 AM 24.1 °F 23.7 °F 99% 30.44 in 10.0 mi North - - N/A   Clear
3:15 AM 23.9 °F 23.7 °F 99% 30.43 in 10.0 mi North - - N/A   Clear
3:35 AM 23.9 °F 23.5 °F 99% 30.43 in 10.0 mi North - - N/A   Clear
3:55 AM 23.7 °F 23.4 °F 99% 30.44 in 10.0 mi North - - N/A   Clear
4:15 AM 23.7 °F 23.4 °F 99% 30.44 in 10.0 mi North - - N/A   Clear
4:35 AM 23.4 °F 23.0 °F 99% 30.43 in 10.0 mi North - - N/A   Clear
4:55 AM 23.4 °F 23.0 °F 99% 30.42 in 10.0 mi North - - N/A   Clear
5:15 AM 23.2 °F 22.6 °F 98% 30.43 in 10.0 mi North - - N/A   Clear
5:35 AM 23.0 °F 22.6 °F 99% 30.43 in 10.0 mi North - - N/A   Clear
5:55 AM 22.6 °F 22.1 °F 98% 30.43 in 10.0 mi North - - N/A   Clear
6:15 AM 22.5 °F 21.9 °F 98% 30.43 in 10.0 mi North - - N/A   Clear
6:35 AM 22.6 °F 22.3 °F 99% 30.44 in 10.0 mi North - - N/A   Clear
6:55 AM 22.6 °F 22.1 °F 98% 30.44 in 10.0 mi North - - N/A   Clear
7:15 AM 22.8 °F 22.5 °F 99% 30.44 in 10.0 mi North - - N/A   Clear
7:35 AM 22.8 °F 22.3 °F 98% 30.44 in 10.0 mi North - - N/A   Clear
7:55 AM 23.2 °F 22.8 °F 99% 30.45 in 10.0 mi North - - N/A   Clear
8:15 AM 24.4 °F 24.3 °F 99% 30.46 in 10.0 mi North - - N/A   Clear
8:35 AM 25.7 °F 25.7 °F 100% 30.47 in 10.0 mi North - - N/A   Clear
8:55 AM 28.0 °F 27.7 °F 99% 30.47 in 7.0 mi North - - N/A   Clear
9:15 AM 30.2 °F 29.3 °F 96% 30.48 in 10.0 mi North - - N/A   Clear
9:35 AM 32.5 °F 31.5 °F 96% 30.48 in 10.0 mi North - - N/A   Clear
9:55 AM 34.2 °F 32.0 °F 92% 30.48 in 10.0 mi North - - N/A   Clear
10:15 AM 36.5 °F 32.5 °F 86% 30.48 in 10.0 mi North - - N/A   Clear
10:35 AM 39.2 °F 31.5 °F 74% 30.48 in 10.0 mi North - - N/A   Clear
10:55 AM 41.7 °F 32.0 °F 68% 30.46 in 10.0 mi North - - N/A   Clear
11:15 AM 43.0 °F 32.0 °F 65% 30.45 in 10.0 mi North - - N/A   Clear
11:35 AM 45.0 °F 32.0 °F 60% 30.45 in 10.0 mi North - - N/A   Clear
11:55 AM 46.8 °F 29.8 °F 52% 30.43 in 10.0 mi North - - N/A   Clear
12:15 PM 47.8 °F 29.7 °F 49% 30.42 in 10.0 mi North - - N/A   Clear
12:35 PM 48.6 °F 29.1 °F 47% 30.41 in 10.0 mi North - - N/A   Clear
12:55 PM 49.8 °F 29.1 °F 45% 30.40 in 10.0 mi North - - N/A   Clear
1:15 PM 50.5 °F 27.5 °F 41% 30.39 in 10.0 mi North - - N/A   Clear
1:35 PM 51.8 °F 26.1 °F 37% 30.38 in 10.0 mi North - - N/A   Clear
1:55 PM 53.2 °F 26.6 °F 36% 30.37 in 10.0 mi North - - N/A   Clear
2:15 PM 52.7 °F 26.4 °F 36% 30.36 in 10.0 mi North - - N/A   Clear
2:35 PM 51.8 °F 25.5 °F 36% 30.35 in 10.0 mi North - - N/A   Clear
2:55 PM 49.8 °F 28.0 °F 43% 30.34 in 10.0 mi North - - N/A   Clear
3:15 PM 47.7 °F 29.8 °F 50% 30.34 in 10.0 mi North - - N/A   Clear
3:35 PM 44.8 °F 30.6 °F 57% 30.34 in 10.0 mi North - - N/A   Clear
3:55 PM 42.8 °F 30.4 °F 62% 30.34 in 10.0 mi North - - N/A   Clear
4:15 PM 41.9 °F 30.7 °F 65% 30.33 in 10.0 mi North - - N/A   Clear
4:35 PM 40.8 °F 30.6 °F 67% 30.33 in 10.0 mi North - - N/A   Clear
4:55 PM 39.6 °F 30.6 °F 70% 30.33 in 10.0 mi North - - N/A   Clear
5:15 PM 37.6 °F 30.0 °F 74% 30.33 in 10.0 mi North - - N/A   Clear
5:35 PM 36.1 °F 29.8 °F 78% 30.33 in 10.0 mi North - - N/A   Clear
5:55 PM 35.1 °F 29.3 °F 80% 30.33 in 10.0 mi North - - N/A   Clear
6:15 PM 34.2 °F 29.3 °F 82% 30.34 in 10.0 mi North - - N/A   Clear
6:35 PM 33.3 °F 29.3 °F 85% 30.34 in 10.0 mi North - - N/A   Clear
6:55 PM 32.5 °F 29.3 °F 88% 30.35 in 10.0 mi North - - N/A   Clear
7:15 PM 32.2 °F 29.1 °F 88% 30.35 in 10.0 mi North - - N/A   Clear
7:35 PM 32.0 °F 29.1 °F 89% 30.35 in 10.0 mi North - - N/A   Clear
7:55 PM 31.8 °F 29.1 °F 90% 30.35 in 10.0 mi North - - N/A   Clear
8:15 PM 31.5 °F 28.6 °F 89% 30.36 in 10.0 mi North - - N/A   Clear
8:35 PM 31.1 °F 28.4 °F 90% 30.36 in 10.0 mi North - - N/A   Clear
8:55 PM 30.9 °F 28.4 °F 90% 30.36 in 10.0 mi North - - N/A   Clear
9:15 PM 30.7 °F 28.2 °F 90% 30.36 in 10.0 mi North - - N/A   Clear
9:35 PM 30.4 °F 28.2 °F 92% 30.36 in 10.0 mi North - - N/A   Clear
9:55 PM 30.6 °F 27.9 °F 90% 30.36 in 10.0 mi North - - N/A   Clear
10:15 PM 30.2 °F 27.7 °F 90% 30.37 in 10.0 mi North - - N/A   Clear
10:35 PM 30.2 °F 27.9 °F 91% 30.37 in 10.0 mi North - - N/A   Clear
10:55 PM 29.8 °F 27.5 °F 91% 30.37 in 10.0 mi North - - N/A   Clear
11:15 PM 29.5 °F 27.9 °F 94% 30.37 in 10.0 mi North - - N/A   Clear
11:35 PM 29.3 °F 27.5 °F 93% 30.37 in 10.0 mi North - - N/A   Clear
11:55 PM 29.5 °F 27.5 °F 92% 30.37 in 10.0 mi North - - N/A   Clear